createdAt,value
2018-06-03T00:00:32.600Z,103.53
2018-06-03T00:03:35.057Z,86.80
2018-06-03T00:06:37.560Z,105.60
2018-06-03T00:09:40.207Z,101.73
2018-06-03T00:12:42.755Z,101.17
2018-06-03T00:15:45.205Z,85.23
2018-06-03T00:18:47.716Z,91.40
2018-06-03T00:21:51.011Z,100.37
2018-06-03T00:24:53.516Z,105.53
2018-06-03T00:27:56.025Z,102.13
2018-06-03T00:30:59.940Z,121.50
2018-06-03T00:34:02.497Z,121.03
2018-06-03T00:37:04.991Z,99.03
2018-06-03T00:40:07.501Z,107.37
2018-06-03T00:43:09.960Z,89.07
2018-06-03T00:46:12.447Z,99.83
2018-06-03T00:49:14.992Z,121.27
2018-06-03T00:52:17.455Z,101.27
2018-06-03T00:55:19.946Z,88.13
2018-06-03T00:58:22.426Z,105.97
2018-06-03T01:01:24.887Z,106.90
2018-06-03T01:04:27.381Z,109.07
2018-06-03T01:07:29.848Z,100.57
2018-06-03T01:10:32.365Z,105.80
2018-06-03T01:13:34.826Z,114.27
2018-06-03T01:16:37.331Z,98.87
2018-06-03T01:19:39.851Z,110.40
2018-06-03T01:22:42.405Z,114.33
2018-06-03T01:25:44.897Z,99.57
2018-06-03T01:28:47.381Z,116.93
2018-06-03T01:31:49.858Z,107.57
2018-06-03T01:34:52.347Z,116.50
2018-06-03T01:37:54.840Z,119.47
2018-06-03T01:40:57.339Z,113.43
2018-06-03T01:43:59.832Z,126.83
2018-06-03T01:47:02.312Z,117.40
2018-06-03T01:50:04.804Z,111.27
2018-06-03T01:53:07.248Z,120.80
2018-06-03T01:56:09.753Z,122.37
2018-06-03T01:59:12.233Z,119.10
2018-06-03T02:02:14.740Z,110.77
2018-06-03T02:05:17.342Z,109.13
2018-06-03T02:08:19.932Z,122.07
2018-06-03T02:11:22.372Z,116.20
2018-06-03T02:14:24.856Z,121.10
2018-06-03T02:17:27.347Z,129.80
2018-06-03T02:20:29.822Z,113.27
2018-06-03T02:23:32.321Z,110.17
2018-06-03T02:26:34.823Z,114.00
2018-06-03T02:29:39.193Z,114.10
2018-06-03T02:32:41.648Z,104.93
2018-06-03T02:35:44.127Z,101.90
2018-06-03T02:38:46.615Z,112.37
2018-06-03T02:41:49.139Z,124.33
2018-06-03T02:44:51.751Z,119.20
2018-06-03T02:47:54.183Z,117.03
2018-06-03T02:50:56.660Z,110.40
2018-06-03T02:53:59.132Z,129.73
2018-06-03T02:57:02.937Z,112.83
2018-06-03T03:00:05.509Z,111.13
2018-06-03T03:03:08.016Z,117.47
2018-06-03T03:06:10.523Z,133.50
2018-06-03T03:09:12.984Z,120.23
2018-06-03T03:12:15.464Z,115.37
2018-06-03T03:17:05.411Z,137.40
2018-06-03T03:20:07.925Z,124.03
2018-06-03T03:23:10.372Z,125.50
2018-06-03T03:26:12.853Z,109.83
2018-06-03T03:29:15.327Z,115.37
2018-06-03T03:32:17.812Z,100.70
2018-06-03T03:35:20.322Z,104.03
2018-06-03T03:38:22.758Z,115.20
2018-06-03T03:41:25.242Z,122.43
2018-06-03T03:44:27.727Z,100.43
2018-06-03T03:47:30.194Z,99.00
2018-06-03T03:50:32.685Z,90.60
2018-06-03T03:53:35.158Z,86.60
2018-06-03T03:56:37.613Z,101.57
2018-06-03T03:59:40.105Z,105.20
2018-06-03T04:02:42.541Z,124.53
2018-06-03T04:05:45.043Z,126.20
2018-06-03T04:08:47.526Z,112.77
2018-06-03T04:11:50.044Z,108.77
2018-06-03T04:14:52.530Z,100.57
2018-06-03T04:17:55.000Z,89.70
2018-06-03T04:20:57.487Z,87.33
2018-06-03T04:23:59.961Z,78.17
2018-06-03T04:27:02.378Z,66.60
2018-06-03T04:30:04.867Z,73.70
2018-06-03T04:33:07.317Z,62.80
2018-06-03T04:36:09.803Z,67.33
2018-06-03T04:39:12.247Z,70.87
2018-06-03T04:42:14.729Z,63.90
2018-06-03T04:45:17.267Z,65.90
2018-06-03T04:48:19.725Z,64.73
2018-06-03T04:51:22.214Z,61.80
2018-06-03T04:54:24.700Z,57.43
2018-06-03T04:57:27.260Z,47.73
2018-06-03T05:00:29.728Z,68.30
2018-06-03T05:03:32.192Z,70.43
2018-06-03T05:06:34.698Z,48.73
2018-06-03T05:09:37.141Z,36.33
2018-06-03T05:12:39.672Z,40.47
2018-06-03T05:15:42.165Z,30.43
2018-06-03T05:18:44.610Z,29.10
2018-06-03T05:21:47.115Z,35.23
2018-06-03T05:24:49.595Z,41.47
2018-06-03T05:27:52.067Z,53.97
2018-06-03T05:30:54.578Z,57.43
2018-06-03T05:33:57.053Z,60.30
2018-06-03T05:36:59.629Z,56.03
2018-06-03T05:40:02.078Z,58.43
2018-06-03T05:43:04.553Z,67.80
2018-06-03T05:46:07.118Z,58.43
2018-06-03T05:49:09.635Z,72.47
2018-06-03T05:52:12.169Z,66.07
2018-06-03T05:55:14.604Z,63.60
2018-06-03T05:58:17.088Z,63.00
2018-06-03T06:01:19.575Z,65.00
2018-06-03T06:04:22.020Z,65.20
2018-06-03T06:07:24.468Z,63.40
2018-06-03T06:10:26.924Z,65.57
2018-06-03T06:13:29.414Z,62.87
2018-06-03T06:16:31.916Z,63.90
2018-06-03T06:19:34.396Z,60.83
2018-06-03T06:22:36.882Z,63.57
2018-06-03T06:25:39.459Z,66.10
2018-06-03T06:28:41.964Z,62.77
2018-06-03T06:31:44.431Z,62.03
2018-06-03T06:34:46.940Z,60.70
2018-06-03T06:37:49.395Z,63.10
2018-06-03T06:40:51.997Z,61.60
2018-06-03T06:43:54.475Z,67.00
2018-06-03T06:46:56.923Z,56.73
2018-06-03T06:49:59.476Z,65.93
2018-06-03T06:53:01.905Z,62.03
2018-06-03T06:56:04.412Z,55.37
2018-06-03T06:59:06.858Z,60.53
2018-06-03T07:02:09.348Z,59.53
2018-06-03T07:05:11.808Z,61.93
2018-06-03T07:08:14.294Z,59.60
2018-06-03T07:11:16.798Z,59.43
2018-06-03T07:14:19.335Z,55.40
2018-06-03T07:17:21.812Z,54.43
2018-06-03T07:20:24.252Z,54.73
2018-06-03T07:23:26.950Z,66.57
2018-06-03T07:26:29.408Z,57.83
2018-06-03T07:29:31.907Z,57.90
2018-06-03T07:32:34.403Z,57.30
2018-06-03T07:35:36.887Z,59.07
2018-06-03T07:38:39.379Z,62.07
2018-06-03T07:41:41.833Z,58.60
2018-06-03T07:44:44.314Z,61.17
2018-06-03T07:47:46.829Z,53.13
2018-06-03T07:50:49.327Z,54.50
2018-06-03T07:53:51.832Z,55.40
2018-06-03T07:56:54.273Z,54.17
2018-06-03T07:59:56.835Z,56.37
2018-06-03T08:02:59.305Z,49.17
2018-06-03T08:06:01.800Z,49.40
2018-06-03T08:09:04.235Z,49.80
2018-06-03T08:12:06.718Z,49.57
2018-06-03T08:15:09.221Z,49.87
2018-06-03T08:18:11.712Z,57.80
2018-06-03T08:21:14.222Z,45.50
2018-06-03T08:24:16.770Z,46.20
2018-06-03T08:27:19.227Z,47.50
2018-06-03T08:30:21.720Z,44.63
2018-06-03T08:33:24.180Z,48.97
2018-06-03T08:36:26.668Z,49.13
2018-06-03T08:39:29.100Z,39.87
2018-06-03T08:42:31.676Z,38.30
2018-06-03T08:45:34.187Z,45.03
2018-06-03T08:48:36.677Z,37.53
2018-06-03T08:51:39.199Z,34.83
2018-06-03T08:54:41.731Z,33.00
2018-06-03T08:57:44.272Z,31.63
2018-06-03T09:00:46.817Z,32.93
2018-06-03T09:03:49.312Z,36.33
2018-06-03T09:06:51.841Z,33.57
2018-06-03T09:09:54.305Z,35.87
2018-06-03T09:12:56.763Z,31.77
2018-06-03T09:15:59.331Z,31.13
2018-06-03T09:19:01.826Z,32.20
2018-06-03T09:22:04.315Z,32.17
2018-06-03T09:25:06.855Z,32.17
2018-06-03T09:28:09.331Z,38.73
2018-06-03T09:31:11.887Z,33.00
2018-06-03T09:34:14.392Z,32.33
2018-06-03T09:37:17.039Z,35.17
2018-06-03T09:40:19.506Z,39.50
2018-06-03T09:43:21.996Z,41.43
2018-06-03T09:46:24.542Z,32.63
2018-06-03T09:49:27.023Z,32.90
2018-06-03T09:52:29.553Z,41.20
2018-06-03T09:55:32.047Z,38.67
2018-06-03T09:58:34.523Z,42.00
2018-06-03T10:01:37.034Z,34.30
2018-06-03T10:04:39.506Z,37.93
2018-06-03T10:07:42.013Z,36.73
2018-06-03T10:10:44.492Z,37.77
2018-06-03T10:13:47.007Z,38.70
2018-06-03T10:16:49.433Z,42.33
2018-06-03T10:19:51.936Z,41.23
2018-06-03T10:22:54.443Z,37.90
2018-06-03T10:25:57.017Z,39.50
2018-06-03T10:28:59.571Z,39.53
2018-06-03T10:32:02.047Z,33.23
2018-06-03T10:35:04.553Z,34.00
2018-06-03T10:38:07.064Z,38.87
2018-06-03T10:41:09.618Z,36.03
2018-06-03T10:44:12.192Z,37.30
2018-06-03T10:47:14.658Z,36.30
2018-06-03T10:50:17.225Z,34.93
2018-06-03T10:53:19.701Z,34.57
2018-06-03T10:56:22.187Z,32.97
2018-06-03T10:59:24.723Z,35.00
2018-06-03T11:02:27.217Z,35.23
2018-06-03T11:05:29.735Z,26.70
2018-06-03T11:08:32.209Z,29.93
2018-06-03T11:11:34.709Z,23.90
2018-06-03T11:14:37.322Z,27.43
2018-06-03T11:17:39.832Z,24.57
2018-06-03T11:20:42.336Z,26.27
2018-06-03T11:23:44.905Z,23.57
2018-06-03T11:26:47.414Z,24.80
2018-06-03T11:29:49.983Z,27.40
2018-06-03T11:32:52.529Z,27.63
2018-06-03T11:35:55.059Z,25.30
2018-06-03T11:38:57.550Z,26.77
2018-06-03T11:42:00.107Z,29.30
2018-06-03T11:45:02.663Z,23.63
2018-06-03T11:48:05.198Z,22.83
2018-06-03T11:51:07.763Z,20.70
2018-06-03T11:54:10.284Z,21.50
2018-06-03T11:57:12.792Z,19.37
2018-06-03T12:00:15.297Z,16.83
2018-06-03T12:03:17.835Z,18.03
2018-06-03T12:06:20.349Z,16.83
2018-06-03T12:09:22.835Z,17.27
2018-06-03T12:12:25.365Z,17.37
2018-06-03T12:15:27.842Z,16.00
2018-06-03T12:18:30.400Z,15.80
2018-06-03T12:21:32.903Z,15.27
2018-06-03T12:24:35.475Z,16.27
2018-06-03T12:27:38.004Z,13.93
2018-06-03T12:30:40.538Z,13.57
2018-06-03T12:33:43.090Z,13.83
2018-06-03T12:36:45.610Z,15.37
2018-06-03T12:39:48.082Z,16.20
2018-06-03T12:42:50.545Z,19.30
2018-06-03T12:45:53.024Z,22.00
2018-06-03T12:48:55.679Z,21.47
2018-06-03T12:51:58.150Z,19.57
2018-06-03T12:55:00.682Z,19.87
2018-06-03T12:58:03.233Z,16.77
2018-06-03T13:01:05.709Z,14.40
2018-06-03T13:04:08.268Z,16.33
2018-06-03T13:07:10.779Z,17.03
2018-06-03T13:10:13.260Z,15.77
2018-06-03T13:13:15.799Z,17.90
2018-06-03T13:16:18.325Z,17.63
2018-06-03T13:19:20.814Z,14.33
2018-06-03T13:22:23.314Z,14.73
2018-06-03T13:25:25.849Z,15.57
2018-06-03T13:28:28.308Z,15.27
2018-06-03T13:31:30.814Z,13.87
2018-06-03T13:34:33.289Z,15.80
2018-06-03T13:37:35.861Z,15.03
2018-06-03T13:40:38.428Z,13.00
2018-06-03T13:43:40.946Z,15.53
2018-06-03T13:46:43.399Z,15.40
2018-06-03T13:49:45.933Z,13.63
2018-06-03T13:52:48.449Z,15.37
2018-06-03T13:55:50.911Z,17.17
2018-06-03T13:58:53.440Z,15.13
2018-06-03T14:01:56.000Z,14.70
2018-06-03T14:04:58.465Z,14.03
2018-06-03T14:08:00.994Z,15.70
2018-06-03T14:11:03.524Z,17.37
2018-06-03T14:14:06.090Z,14.07
2018-06-03T14:17:08.560Z,12.60
2018-06-03T14:20:11.061Z,14.00
2018-06-03T14:23:13.535Z,15.80
2018-06-03T14:26:16.096Z,16.00
2018-06-03T14:29:18.644Z,17.63
2018-06-03T14:32:21.144Z,12.93
2018-06-03T14:35:23.653Z,14.20
2018-06-03T14:38:26.194Z,16.27
2018-06-03T14:41:28.704Z,14.80
2018-06-03T14:44:31.274Z,15.93
2018-06-03T14:47:33.759Z,13.67
2018-06-03T14:50:36.285Z,12.90
2018-06-03T14:53:38.796Z,11.67
2018-06-03T14:56:41.356Z,12.97
2018-06-03T14:59:43.811Z,10.37
2018-06-03T15:02:46.310Z,10.10
2018-06-03T15:05:48.860Z,14.30
2018-06-03T15:08:51.404Z,14.93
2018-06-03T15:11:53.875Z,13.27
2018-06-03T15:14:56.405Z,10.13
2018-06-03T15:17:58.888Z,11.30
2018-06-03T15:21:01.495Z,14.33
2018-06-03T15:24:04.025Z,13.20
2018-06-03T15:27:06.568Z,13.00
2018-06-03T15:30:09.083Z,11.33
2018-06-03T15:33:11.601Z,15.70
2018-06-03T15:36:14.131Z,14.37
2018-06-03T15:39:21.403Z,11.57
2018-06-03T15:42:23.912Z,11.57
2018-06-03T15:45:26.448Z,15.03
2018-06-03T15:48:29.019Z,15.57
2018-06-03T15:51:31.558Z,10.90
2018-06-03T15:54:34.035Z,12.30
2018-06-03T15:57:36.544Z,12.23
2018-06-03T16:00:39.046Z,12.20
2018-06-03T16:03:41.528Z,13.90
2018-06-03T16:06:44.035Z,11.10
2018-06-03T16:09:46.540Z,16.90
2018-06-03T16:12:49.044Z,15.50
2018-06-03T16:15:51.589Z,12.27
2018-06-03T16:18:54.056Z,12.20
2018-06-03T16:21:56.591Z,15.70
2018-06-03T16:24:59.118Z,16.50
2018-06-03T16:28:01.599Z,12.37
2018-06-03T16:31:04.136Z,13.67
2018-06-03T16:34:06.671Z,13.30
2018-06-03T16:37:09.281Z,18.70
2018-06-03T16:40:11.768Z,24.53
2018-06-03T16:43:14.292Z,16.10
2018-06-03T16:46:16.787Z,15.33
2018-06-03T16:49:19.308Z,20.03
2018-06-03T16:52:21.773Z,17.10
2018-06-03T16:55:24.330Z,20.70
2018-06-03T16:58:26.829Z,17.30
2018-06-03T17:01:29.342Z,17.60
2018-06-03T17:04:31.878Z,19.60
2018-06-03T17:07:34.349Z,23.30
2018-06-03T17:10:36.861Z,18.93
2018-06-03T17:13:39.397Z,18.83
2018-06-03T17:16:41.987Z,19.00
2018-06-03T17:19:44.454Z,17.53
2018-06-03T17:22:46.993Z,21.17
2018-06-03T17:25:49.602Z,16.70
2018-06-03T17:28:52.172Z,19.23
2018-06-03T17:31:54.723Z,17.90
2018-06-03T17:34:57.274Z,19.30
2018-06-03T17:37:59.811Z,15.03
2018-06-03T17:41:02.318Z,13.50
2018-06-03T17:44:04.861Z,16.13
2018-06-03T17:47:07.447Z,13.73
2018-06-03T17:50:09.921Z,16.10
2018-06-03T17:53:12.446Z,16.10
2018-06-03T17:56:15.016Z,14.87
2018-06-03T17:59:17.555Z,15.97
2018-06-03T18:02:20.114Z,16.40
2018-06-03T18:05:22.624Z,14.07
2018-06-03T18:08:25.096Z,13.80
2018-06-03T18:11:27.633Z,13.43
2018-06-03T18:14:31.008Z,13.13
2018-06-03T18:17:36.142Z,14.40
2018-06-03T18:20:42.183Z,18.63
2018-06-03T18:23:44.768Z,19.57
2018-06-03T18:26:47.220Z,12.23
2018-06-03T18:29:49.724Z,15.50
2018-06-03T18:32:52.289Z,18.00
2018-06-03T18:35:54.823Z,13.37
2018-06-03T18:38:57.345Z,16.00
2018-06-03T18:41:59.818Z,15.13
2018-06-03T18:45:02.354Z,16.17
2018-06-03T18:48:04.858Z,15.70
2018-06-03T18:51:26.580Z,17.70
2018-06-03T18:54:29.064Z,19.60
2018-06-03T18:57:31.546Z,15.73
2018-06-03T19:00:34.075Z,15.93
2018-06-03T19:03:36.613Z,19.07
2018-06-03T19:06:39.182Z,18.10
2018-06-03T19:09:41.656Z,16.63
2018-06-03T19:12:44.204Z,20.27
2018-06-03T19:15:47.738Z,19.50
2018-06-03T19:18:50.343Z,18.37
2018-06-03T19:21:52.907Z,17.07
2018-06-03T19:24:55.512Z,19.30
2018-06-03T19:27:58.084Z,20.50
2018-06-03T19:31:01.939Z,21.33
2018-06-03T19:34:04.450Z,23.27
2018-06-03T19:37:07.034Z,22.10
2018-06-03T19:40:09.558Z,22.53
2018-06-03T19:43:12.045Z,24.17
2018-06-03T19:46:14.587Z,19.50
2018-06-03T19:49:17.223Z,20.90
2018-06-03T19:52:19.767Z,24.97
2018-06-03T19:55:22.295Z,20.10
2018-06-03T19:58:24.805Z,22.60
2018-06-03T20:01:27.345Z,20.90
2018-06-03T20:04:29.848Z,20.30
2018-06-03T20:07:32.448Z,23.43
2018-06-03T20:10:35.036Z,19.33
2018-06-03T20:13:37.549Z,24.40
2018-06-03T20:16:40.122Z,23.17
2018-06-03T20:19:42.659Z,30.30
2018-06-03T20:22:45.159Z,17.80
2018-06-03T20:25:47.705Z,24.40
2018-06-03T20:28:56.401Z,21.67
2018-06-03T20:31:58.938Z,23.23
2018-06-03T20:35:01.411Z,26.77
2018-06-03T20:38:03.965Z,25.30
2018-06-03T20:41:06.452Z,24.60
2018-06-03T20:44:08.994Z,23.20
2018-06-03T20:51:27.454Z,26.30
2018-06-03T20:54:31.098Z,27.57
2018-06-03T20:57:34.735Z,26.77
2018-06-03T21:00:38.390Z,24.50
2018-06-03T21:03:42.168Z,25.67
2018-06-03T21:06:45.918Z,24.73
2018-06-03T21:09:49.565Z,28.00
2018-06-03T21:12:53.228Z,22.27
2018-06-03T21:15:56.913Z,29.13
2018-06-03T21:19:00.554Z,22.17
2018-06-03T21:22:04.223Z,23.70
2018-06-03T21:25:07.933Z,25.60
2018-06-03T21:28:11.804Z,26.50
2018-06-03T21:31:15.394Z,23.20
2018-06-03T21:34:19.085Z,23.13
2018-06-03T21:37:22.841Z,24.40
2018-06-03T21:40:26.528Z,23.40
2018-06-03T21:43:31.184Z,25.70
2018-06-03T21:46:34.887Z,24.43
2018-06-03T21:49:38.521Z,23.13
2018-06-03T21:52:42.264Z,22.57
2018-06-03T21:55:46.040Z,27.70
2018-06-03T21:58:49.670Z,30.63
2018-06-03T22:01:53.419Z,27.63
2018-06-03T22:04:57.076Z,29.17
2018-06-03T22:08:00.765Z,29.37
2018-06-03T22:11:04.485Z,29.37
2018-06-03T22:14:08.243Z,31.20
2018-06-03T22:17:12.070Z,33.90
2018-06-03T22:20:15.655Z,31.57
2018-06-03T22:23:20.000Z,30.00
2018-06-03T22:26:23.765Z,31.37
2018-06-03T22:29:27.399Z,33.50
2018-06-03T22:32:31.005Z,33.70
2018-06-03T22:35:34.726Z,31.43
2018-06-03T22:38:38.365Z,25.47
2018-06-03T22:41:42.082Z,28.10
2018-06-03T22:44:45.691Z,28.30
2018-06-03T22:47:49.323Z,30.33
2018-06-03T22:50:52.965Z,29.60
2018-06-03T22:53:56.583Z,29.50
2018-06-03T22:57:41.705Z,29.80
2018-06-03T23:00:45.301Z,27.70
2018-06-03T23:03:48.940Z,29.67
2018-06-03T23:06:52.526Z,29.07
2018-06-03T23:09:56.166Z,30.30
2018-06-03T23:12:59.818Z,29.60
2018-06-03T23:16:03.375Z,26.20
2018-06-03T23:19:06.575Z,30.10
2018-06-03T23:22:10.156Z,30.37
2018-06-03T23:25:13.868Z,28.53
2018-06-03T23:28:17.638Z,30.20
2018-06-03T23:31:21.344Z,33.90
2018-06-03T23:34:24.940Z,32.50
2018-06-03T23:37:28.670Z,37.03
2018-06-03T23:40:32.261Z,37.67
2018-06-03T23:43:35.934Z,33.93
2018-06-03T23:46:39.556Z,34.40
2018-06-03T23:49:43.159Z,35.57
2018-06-03T23:52:46.810Z,37.80
2018-06-03T23:55:50.417Z,42.40
2018-06-03T23:58:54.060Z,39.70
